Hartsfield Jackson Atlanta International Airport
KATL : now visible

Airfield :











YOU CAN JOIN US ON...

 
LOGIN :

Register | Disclaimer

   EN    FR    IT 

 









Legend :    VFR   Marginal VFR   IFR   Intensive IFR   Very Intensive IFR
Visi :
Ceiling :
>= 8 km
>= 3000ft
5 to 8 km
1000 to 3000 ft
1500m to 5 km
500 to 1000 ft
800 to 1500m
200 to 500 ft
< 800m
< 200 ft
Symbols :   Thunderstorms  Fog  Heavy snow  Heavy precipitations  Wind > 20 kt







- Airport Elevation : 1026 ft
- IATA code : ATL


KATL - Hartsfield Jackson Atlanta International

CURRENT METAR :
  • 170352Z 01004KT 10SM FEW033 BKN180 BKN250 09/07 A2987 RMK AO2 SLP113 T00940067

EXPIRED METARs :
  • 170325Z 36005KT 10SM FEW010 BKN033 OVC200 09/07 A2988 RMK AO2 T00940067
  • 170252Z 33005KT 10SM FEW010 BKN200 BKN250 09/07 A2988 RMK AO2 SLP117 T00940067 53017
  • 170152Z 35006KT 10SM FEW010 BKN180 BKN250 10/07 A2985 RMK AO2 SLP108 T01000067

TAF KATL
Valid from the 17 at 04:00 until the 18 at 06:00 UTC


170330Z 1704/1806 04006KT P6SM SCT015 BKN035
TEMPO 1705/1708 SCT008 BKN015
FM170800 09008KT P6SM SCT007 OVC015
FM171000 10010KT 5SM -RADZ BR OVC005
FM171400 12010KT 2SM -RA BR OVC004
FM172000 12007KT 2SM -RA BR OVC005
KZTL FIR / North America



MET'MAP, your aeronautical weather chart ! - Copyright ORBIFLY December 2007 - Disclaimer

ORBIFLY MET'MAP TEAM :

Programming & Development : Alexandra Zaïnal
Concept & Development : Baudouin d'Aumeries
Co-Development & Prog : Marc-Olivier Méhu
Technical & hardware support : Manuel Goepfert

Contact : metmap@orbifly.com




SOURCES & CREDITS :

   NOAA       Earth
Advisory